Time;durP1;ratioP1;P1;durP2;ratioP2;P2;SDS_P1;SDS_P2;PMS_P1;PMS_P2;Temp;Humidity;BMP_temperature;BMP_pressure;BME280_temperature;BME280_humidity;BME280_pressure;Samples;Min_cycle;Max_cycle;Signal;HPM_P1;HPM_P2
2021/08/10 00:01:23;;;;;;;39.00;5.63;;;20.40;80.70;;;;;;5041187;28;20557;-60
2021/08/10 00:03:49;;;;;;;36.72;5.28;;;20.40;80.70;;;;;;5025255;28;20091;-62
2021/08/10 00:06:15;;;;;;;32.00;5.85;;;20.40;80.90;;;;;;5024853;28;20099;-62
2021/08/10 00:08:40;;;;;;;35.05;5.45;;;20.30;80.90;;;;;;5042886;28;20072;-59
2021/08/10 00:11:06;;;;;;;32.85;7.72;;;20.30;80.90;;;;;;5057290;28;20025;-60
2021/08/10 00:13:32;;;;;;;27.88;7.35;;;20.30;81.00;;;;;;5041725;28;20131;-60
2021/08/10 00:15:57;;;;;;;27.95;6.38;;;20.20;81.00;;;;;;5023488;28;20033;-60
2021/08/10 00:18:22;;;;;;;31.80;6.55;;;20.20;81.10;;;;;;5009066;28;20032;-59
2021/08/10 00:20:50;;;;;;;27.90;5.43;;;20.20;81.10;;;;;;5042318;28;20025;-60
2021/08/10 00:23:16;;;;;;;23.38;5.45;;;20.10;81.10;;;;;;5025586;28;20123;-60
2021/08/10 00:25:41;;;;;;;22.20;5.65;;;20.10;81.30;;;;;;5007514;28;20504;-60
2021/08/10 00:28:07;;;;;;;21.25;5.07;;;20.10;81.30;;;;;;5041588;28;20162;-60
2021/08/10 00:30:32;;;;;;;19.80;5.40;;;20.10;81.30;;;;;;5041841;28;20090;-60
2021/08/10 00:32:58;;;;;;;25.05;5.10;;;20.10;81.40;;;;;;5042358;28;20043;-60
2021/08/10 00:35:23;;;;;;;27.38;5.18;;;20.10;81.30;;;;;;5025278;28;20032;-60
2021/08/10 00:37:49;;;;;;;15.98;4.68;;;20.00;81.30;;;;;;5042143;28;20138;-61
2021/08/10 00:40:15;;;;;;;14.52;4.70;;;20.10;81.40;;;;;;5006293;28;20094;-60
2021/08/10 00:42:41;;;;;;;17.58;5.28;;;20.00;81.30;;;;;;5024755;28;20332;-60
2021/08/10 00:45:06;;;;;;;21.20;5.78;;;20.00;81.40;;;;;;5024651;28;20598;-61
2021/08/10 00:47:32;;;;;;;19.30;5.65;;;20.00;81.40;;;;;;5057510;28;20112;-61
2021/08/10 00:49:57;;;;;;;19.38;5.90;;;20.00;81.50;;;;;;5024723;28;20040;-61
2021/08/10 00:52:23;;;;;;;24.70;6.28;;;20.00;81.60;;;;;;5027829;28;20151;-60
2021/08/10 00:54:49;;;;;;;17.98;5.07;;;20.00;81.60;;;;;;5027695;28;20037;-61
2021/08/10 00:57:14;;;;;;;15.68;6.82;;;19.90;81.60;;;;;;5029398;28;20535;-61
2021/08/10 00:59:40;;;;;;;14.68;7.32;;;19.90;81.80;;;;;;5028922;28;20033;-60
2021/08/10 01:02:06;;;;;;;11.75;7.10;;;19.90;82.50;;;;;;5028999;28;20025;-61
2021/08/10 01:04:31;;;;;;;15.52;6.05;;;19.80;81.90;;;;;;5027822;28;20078;-61
2021/08/10 01:07:11;;;;;;;15.15;6.05;;;19.90;82.10;;;;;;5024589;28;20130;-60
2021/08/10 01:09:51;;;;;;;9.55;5.95;;;19.80;82.10;;;;;;5028536;28;20039;-60
2021/08/10 01:12:19;;;;;;;19.85;7.47;;;19.80;82.30;;;;;;5026791;28;20033;-61
2021/08/10 01:14:52;;;;;;;12.02;6.22;;;19.70;82.30;;;;;;5028192;28;20117;-60
2021/08/10 01:17:27;;;;;;;15.52;5.97;;;19.70;82.40;;;;;;5027411;28;20017;-61
2021/08/10 01:20:13;;;;;;;8.40;5.53;;;19.70;82.50;;;;;;5026869;28;20037;-61
2021/08/10 01:22:39;;;;;;;11.07;5.50;;;19.70;82.60;;;;;;5028077;28;20053;-61
2021/08/10 01:25:40;;;;;;;9.15;5.68;;;19.70;82.60;;;;;;5060316;28;20021;-61
2021/08/10 01:28:45;;;;;;;8.43;5.22;;;19.70;82.70;;;;;;5030839;28;20033;-61
2021/08/10 01:31:23;;;;;;;13.52;5.30;;;19.60;82.70;;;;;;5027217;28;20032;-61
2021/08/10 01:33:50;;;;;;;11.63;5.05;;;19.60;82.80;;;;;;5043734;28;20029;-61
2021/08/10 01:36:17;;;;;;;10.15;5.00;;;19.60;82.90;;;;;;5026233;28;20477;-61
2021/08/10 01:38:43;;;;;;;14.45;4.53;;;19.50;82.90;;;;;;5043993;28;20031;-61
2021/08/10 01:41:08;;;;;;;9.90;4.38;;;19.60;83.10;;;;;;5026002;28;20029;-61
2021/08/10 01:43:34;;;;;;;9.52;4.13;;;19.50;83.20;;;;;;5027148;28;20040;-61
2021/08/10 01:45:59;;;;;;;11.00;3.90;;;19.50;83.30;;;;;;5025878;28;20079;-61
2021/08/10 01:48:25;;;;;;;7.57;3.97;;;19.50;83.50;;;;;;5026388;28;20044;-60
2021/08/10 01:50:51;;;;;;;7.53;4.20;;;19.50;83.50;;;;;;5027432;28;20069;-60
2021/08/10 01:53:16;;;;;;;6.47;4.20;;;19.50;83.50;;;;;;5023749;28;20493;-61
2021/08/10 01:55:42;;;;;;;8.13;4.00;;;19.40;83.50;;;;;;5009669;28;20052;-61
2021/08/10 01:58:07;;;;;;;9.60;4.20;;;19.40;83.50;;;;;;5024496;28;20120;-61
2021/08/10 02:00:33;;;;;;;8.18;4.15;;;19.40;83.50;;;;;;5026720;28;20519;-61
2021/08/10 02:02:59;;;;;;;8.75;4.32;;;19.40;83.60;;;;;;5023699;28;20460;-61
2021/08/10 02:05:25;;;;;;;6.18;3.63;;;19.40;83.60;;;;;;5024543;28;20055;-61
2021/08/10 02:07:50;;;;;;;8.18;4.65;;;19.40;83.70;;;;;;5024535;28;20033;-60
2021/08/10 02:10:16;;;;;;;7.95;4.93;;;19.30;83.70;;;;;;5024671;28;20033;-61
2021/08/10 02:12:42;;;;;;;7.32;5.53;;;19.30;83.80;;;;;;5023994;28;20079;-61
2021/08/10 02:15:08;;;;;;;7.97;5.78;;;19.30;83.90;;;;;;5024951;28;20087;-60
2021/08/10 02:17:34;;;;;;;9.65;5.13;;;19.30;83.90;;;;;;5024575;28;20037;-61
2021/08/10 02:19:59;;;;;;;12.70;4.68;;;19.30;83.90;;;;;;5044709;28;20041;-61
2021/08/10 02:22:26;;;;;;;7.00;4.88;;;19.30;84.00;;;;;;5026183;28;20047;-61
2021/08/10 02:24:59;;;;;;;10.25;5.35;;;19.20;83.90;;;;;;5041191;28;20128;-61
2021/08/10 02:27:35;;;;;;;8.15;4.80;;;19.20;84.00;;;;;;5026993;28;20032;-60
2021/08/10 02:30:07;;;;;;;7.68;4.78;;;19.20;84.10;;;;;;5013192;28;20029;-60
2021/08/10 02:32:32;;;;;;;9.35;5.65;;;19.20;84.10;;;;;;5008065;28;20032;-61
2021/08/10 02:34:58;;;;;;;10.23;4.90;;;19.20;84.20;;;;;;5026312;28;20029;-60
2021/08/10 02:37:23;;;;;;;11.73;4.38;;;19.10;84.10;;;;;;5043820;28;20528;-60
2021/08/10 02:39:49;;;;;;;10.25;5.40;;;19.10;84.20;;;;;;5027167;28;20055;-60
2021/08/10 02:42:16;;;;;;;7.90;4.75;;;19.10;84.90;;;;;;5026824;28;20025;-61
2021/08/10 02:44:42;;;;;;;7.38;4.35;;;19.10;84.30;;;;;;5026454;28;20504;-61
2021/08/10 02:47:08;;;;;;;6.95;5.22;;;19.10;84.30;;;;;;5026950;28;20037;-61
2021/08/10 02:49:33;;;;;;;8.23;4.43;;;19.10;84.40;;;;;;5024357;28;20227;-61
2021/08/10 02:51:59;;;;;;;6.82;4.70;;;19.10;84.50;;;;;;5027621;28;21257;-60
2021/08/10 02:54:24;;;;;;;5.18;3.67;;;19.00;84.50;;;;;;5009437;28;20111;-61
2021/08/10 02:57:02;;;;;;;7.28;4.47;;;19.00;84.50;;;;;;5026916;28;20378;-61
2021/08/10 02:59:32;;;;;;;6.93;4.43;;;19.00;84.50;;;;;;5026945;28;20103;-61
2021/08/10 03:02:20;;;;;;;6.47;4.18;;;19.00;84.50;;;;;;5025798;28;20053;-60
2021/08/10 03:04:55;;;;;;;6.90;4.30;;;19.00;84.60;;;;;;5025129;28;20110;-61
2021/08/10 03:07:21;;;;;;;10.13;4.80;;;18.90;84.50;;;;;;5041886;28;20029;-60
2021/08/10 03:09:48;;;;;;;6.95;4.30;;;18.90;84.60;;;;;;5027341;28;20122;-61
2021/08/10 03:12:13;;;;;;;6.68;3.65;;;18.90;84.70;;;;;;5025805;28;20029;-61
2021/08/10 03:14:39;;;;;;;6.32;3.90;;;18.90;84.70;;;;;;5023849;28;20037;-60
2021/08/10 03:17:06;;;;;;;4.80;3.47;;;18.90;84.70;;;;;;5024009;28;20419;-60
2021/08/10 03:19:31;;;;;;;4.93;3.60;;;18.90;84.80;;;;;;5026393;28;20029;-61
2021/08/10 03:21:57;;;;;;;7.57;3.63;;;18.90;84.90;;;;;;5026108;28;21467;-61
2021/08/10 03:24:23;;;;;;;5.05;3.55;;;18.80;84.90;;;;;;5026301;28;20403;-61
2021/08/10 03:26:49;;;;;;;5.90;3.60;;;18.80;84.90;;;;;;5025018;28;20075;-61
2021/08/10 03:29:15;;;;;;;4.30;3.33;;;18.80;85.00;;;;;;5024388;28;20099;-61
2021/08/10 03:31:40;;;;;;;5.55;3.90;;;18.80;85.00;;;;;;5056561;28;20862;-61
2021/08/10 03:34:06;;;;;;;6.95;3.15;;;18.80;85.10;;;;;;5025855;28;20101;-61
2021/08/10 03:36:31;;;;;;;5.25;3.53;;;18.70;85.00;;;;;;5042218;28;20352;-61
2021/08/10 03:38:57;;;;;;;4.10;3.08;;;18.80;85.10;;;;;;5025830;28;20143;-61
2021/08/10 03:41:23;;;;;;;6.47;3.30;;;18.70;85.10;;;;;;5025143;28;20029;-61
2021/08/10 03:43:49;;;;;;;4.15;3.30;;;18.70;85.20;;;;;;5024427;28;20041;-61
2021/08/10 03:46:14;;;;;;;4.40;2.88;;;18.70;85.20;;;;;;5024878;28;20159;-61
2021/08/10 03:48:41;;;;;;;8.95;3.60;;;18.70;85.20;;;;;;5024315;28;20036;-61
2021/08/10 03:51:07;;;;;;;4.07;3.10;;;18.70;85.20;;;;;;5025249;28;20172;-61
2021/08/10 03:53:34;;;;;;;5.68;3.33;;;18.70;85.20;;;;;;5041642;28;20151;-61
2021/08/10 03:55:59;;;;;;;6.05;3.35;;;18.60;85.20;;;;;;5024656;28;20503;-61
2021/08/10 03:58:25;;;;;;;6.45;3.17;;;18.60;85.30;;;;;;5024760;28;20037;-61
2021/08/10 04:00:51;;;;;;;6.90;3.05;;;18.60;85.30;;;;;;5009043;28;20033;-61
2021/08/10 04:03:16;;;;;;;5.05;2.85;;;18.60;85.40;;;;;;5025077;28;20021;-61
2021/08/10 04:05:45;;;;;;;4.22;3.17;;;18.60;85.40;;;;;;5023959;28;20114;-61
2021/08/10 04:08:12;;;;;;;6.38;3.13;;;18.60;85.50;;;;;;5024161;28;20049;-60
2021/08/10 04:10:42;;;;;;;5.93;3.10;;;18.50;85.50;;;;;;5024918;28;20377;-61
2021/08/10 04:13:09;;;;;;;4.72;2.65;;;18.50;85.50;;;;;;5025022;28;20060;-61
2021/08/10 04:15:46;;;;;;;3.55;2.78;;;18.50;85.60;;;;;;5024938;28;20051;-61
2021/08/10 04:18:22;;;;;;;4.10;2.83;;;18.50;85.70;;;;;;5024046;28;20366;-61
2021/08/10 04:20:51;;;;;;;4.63;2.83;;;18.50;85.70;;;;;;5024230;28;20569;-61
2021/08/10 04:23:17;;;;;;;6.07;3.08;;;18.40;85.70;;;;;;5025443;28;20064;-61
2021/08/10 04:25:43;;;;;;;6.63;3.03;;;18.40;85.90;;;;;;5023895;28;20071;-61
2021/08/10 04:28:09;;;;;;;5.40;3.17;;;18.40;85.90;;;;;;5040854;28;20032;-60
2021/08/10 04:30:35;;;;;;;5.55;3.20;;;18.40;86.00;;;;;;5041714;28;20029;-60
2021/08/10 04:33:01;;;;;;;5.03;2.72;;;18.40;86.00;;;;;;5021929;28;20033;-61
2021/08/10 04:35:26;;;;;;;6.70;3.03;;;18.40;86.00;;;;;;5041463;28;20040;-61
2021/08/10 04:37:52;;;;;;;8.15;2.95;;;18.40;86.00;;;;;;5043160;28;20079;-61
2021/08/10 04:40:18;;;;;;;6.13;3.00;;;18.30;86.00;;;;;;5024886;28;20025;-61
2021/08/10 04:42:43;;;;;;;5.53;2.88;;;18.30;86.10;;;;;;5024398;28;20060;-60
2021/08/10 04:45:09;;;;;;;6.10;2.60;;;18.30;86.20;;;;;;5040641;28;20151;-61
2021/08/10 04:47:35;;;;;;;4.75;3.08;;;18.20;86.20;;;;;;5042515;28;20036;-61
2021/08/10 04:50:00;;;;;;;3.75;2.75;;;18.20;86.30;;;;;;5041827;28;20033;-61
2021/08/10 04:52:26;;;;;;;5.28;2.67;;;18.20;86.30;;;;;;5043332;28;20025;-61
2021/08/10 04:54:51;;;;;;;5.45;2.85;;;18.20;86.90;;;;;;5041688;28;20049;-61
2021/08/10 04:57:17;;;;;;;5.60;2.75;;;18.20;86.40;;;;;;5041561;28;20029;-61
2021/08/10 04:59:42;;;;;;;4.03;2.50;;;18.20;86.60;;;;;;5042558;28;20033;-61
2021/08/10 05:02:08;;;;;;;4.63;2.75;;;18.20;86.70;;;;;;5024168;28;20029;-61
2021/08/10 05:04:34;;;;;;;4.05;2.25;;;18.20;86.70;;;;;;5023254;28;20083;-61
2021/08/10 05:07:03;;;;;;;3.95;2.95;;;18.10;86.60;;;;;;5023680;28;20431;-61
2021/08/10 05:09:31;;;;;;;4.57;2.83;;;18.10;86.60;;;;;;5056086;28;20029;-61
2021/08/10 05:11:57;;;;;;;5.30;2.45;;;18.10;86.60;;;;;;5024563;28;20095;-60
2021/08/10 05:14:23;;;;;;;4.95;2.92;;;18.10;86.60;;;;;;5023471;28;20508;-61
2021/08/10 05:16:48;;;;;;;5.47;2.85;;;18.10;86.60;;;;;;5024137;28;20021;-61
2021/08/10 05:19:14;;;;;;;6.18;2.60;;;18.10;86.60;;;;;;5024522;28;20491;-60
2021/08/10 05:21:39;;;;;;;2.95;2.40;;;18.10;86.70;;;;;;5041513;28;20058;-60
2021/08/10 05:24:05;;;;;;;3.92;2.83;;;18.10;86.80;;;;;;5041822;28;20071;-60
2021/08/10 05:26:30;;;;;;;4.25;2.50;;;18.10;86.90;;;;;;5025830;28;20193;-60
2021/08/10 05:28:56;;;;;;;4.35;2.60;;;18.10;86.90;;;;;;5040117;28;20052;-61
2021/08/10 05:31:22;;;;;;;4.40;3.03;;;18.10;87.10;;;;;;5042358;28;20040;-61
2021/08/10 05:33:47;;;;;;;4.38;2.60;;;18.00;87.10;;;;;;5040287;28;20029;-61
2021/08/10 05:36:13;;;;;;;3.55;2.33;;;18.00;87.20;;;;;;5039522;28;20441;-62
2021/08/10 05:38:40;;;;;;;3.30;2.28;;;18.00;87.10;;;;;;5025989;28;20047;-61
2021/08/10 05:41:05;;;;;;;4.45;2.22;;;18.00;87.10;;;;;;5045602;28;20499;-61
2021/08/10 05:43:31;;;;;;;4.25;2.55;;;18.00;87.10;;;;;;5044459;28;20116;-60
2021/08/10 05:45:56;;;;;;;6.72;2.42;;;18.00;87.20;;;;;;5025725;28;20025;-61
2021/08/10 05:48:23;;;;;;;4.68;2.70;;;18.00;87.20;;;;;;5027085;28;20037;-61
2021/08/10 05:50:49;;;;;;;4.88;2.50;;;18.00;87.20;;;;;;5044463;28;20024;-61
2021/08/10 05:53:14;;;;;;;3.85;2.58;;;18.00;87.20;;;;;;5046081;28;20028;-61
2021/08/10 05:55:40;;;;;;;4.13;2.47;;;18.00;87.30;;;;;;5045595;28;20047;-61
2021/08/10 05:58:05;;;;;;;7.40;2.67;;;18.00;87.40;;;;;;5043362;28;20151;-61
2021/08/10 06:00:32;;;;;;;4.88;3.13;;;18.00;87.40;;;;;;5044097;28;20037;-60
2021/08/10 06:02:57;;;;;;;4.32;2.60;;;18.00;87.50;;;;;;5027438;28;20476;-60
2021/08/10 06:05:23;;;;;;;3.75;2.47;;;18.00;87.60;;;;;;5026925;28;20178;-61
2021/08/10 06:07:48;;;;;;;4.70;2.47;;;18.00;87.70;;;;;;5040672;28;20524;-61
2021/08/10 06:10:14;;;;;;;8.45;2.85;;;18.00;87.70;;;;;;5025560;28;20120;-61
2021/08/10 06:12:39;;;;;;;4.65;2.70;;;17.90;87.80;;;;;;5044545;28;20102;-61
2021/08/10 06:15:05;;;;;;;5.22;2.38;;;18.00;87.90;;;;;;5044156;28;20021;-60
2021/08/10 06:17:31;;;;;;;5.78;2.60;;;18.00;88.10;;;;;;5041573;28;20029;-61
2021/08/10 06:19:57;;;;;;;5.05;2.80;;;18.00;88.20;;;;;;5044013;28;20820;-61
2021/08/10 06:22:23;;;;;;;7.75;2.83;;;18.00;88.40;;;;;;5043536;28;20049;-61
2021/08/10 06:24:49;;;;;;;5.63;2.72;;;17.90;88.40;;;;;;5023722;28;20082;-60
2021/08/10 06:27:14;;;;;;;3.50;2.40;;;18.00;88.70;;;;;;5020811;28;20476;-60
2021/08/10 06:29:40;;;;;;;4.65;2.78;;;17.90;88.60;;;;;;5024708;28;20469;-61
2021/08/10 06:32:06;;;;;;;4.43;2.85;;;17.90;88.70;;;;;;5042186;28;20502;-60
2021/08/10 06:34:31;;;;;;;5.15;3.05;;;18.00;88.70;;;;;;5038027;28;20071;-61
2021/08/10 06:36:57;;;;;;;6.32;2.88;;;18.00;88.80;;;;;;5019245;28;20056;-60
2021/08/10 06:39:22;;;;;;;7.82;2.90;;;17.90;88.90;;;;;;5038932;28;20049;-60
2021/08/10 06:41:48;;;;;;;8.60;3.10;;;17.90;89.00;;;;;;5021965;28;20492;-60
2021/08/10 06:44:13;;;;;;;5.75;2.97;;;17.90;89.20;;;;;;5040647;28;20045;-61
2021/08/10 06:46:39;;;;;;;8.60;3.20;;;18.00;89.20;;;;;;5042083;28;20045;-61
2021/08/10 06:49:04;;;;;;;6.55;3.25;;;18.00;89.40;;;;;;5023352;28;20039;-61
2021/08/10 06:51:30;;;;;;;15.38;3.75;;;18.00;89.50;;;;;;5041492;28;20044;-61
2021/08/10 06:53:55;;;;;;;12.50;3.63;;;18.00;89.60;;;;;;5022307;28;20064;-61
2021/08/10 06:56:21;;;;;;;13.55;3.70;;;18.10;90.00;;;;;;5025107;28;20108;-61
2021/08/10 06:58:46;;;;;;;14.55;3.97;;;18.00;90.00;;;;;;5041040;28;20139;-60
2021/08/10 07:01:12;;;;;;;10.20;3.90;;;18.00;90.10;;;;;;5024989;28;20474;-60
2021/08/10 07:03:37;;;;;;;16.63;4.43;;;18.00;90.10;;;;;;5043797;28;20028;-61
2021/08/10 07:06:03;;;;;;;16.02;4.30;;;18.10;90.10;;;;;;5021264;28;20447;-61
2021/08/10 07:08:28;;;;;;;27.83;5.45;;;18.10;90.20;;;;;;5041869;28;21026;-60
2021/08/10 07:10:54;;;;;;;29.52;5.53;;;18.00;90.20;;;;;;5024395;28;20495;-60
2021/08/10 07:13:19;;;;;;;17.10;4.72;;;18.10;90.50;;;;;;5010454;28;20075;-61
2021/08/10 07:15:45;;;;;;;18.25;4.20;;;18.10;90.50;;;;;;5024335;28;20043;-61
2021/08/10 07:18:10;;;;;;;18.48;4.82;;;18.10;90.40;;;;;;5041492;28;20068;-60
2021/08/10 07:20:36;;;;;;;14.07;4.30;;;18.10;90.70;;;;;;5024229;28;20357;-60
2021/08/10 07:23:01;;;;;;;16.45;4.82;;;18.10;90.80;;;;;;5040698;28;20095;-61
2021/08/10 07:25:27;;;;;;;19.27;4.65;;;18.20;90.80;;;;;;5036156;28;20476;-61
2021/08/10 07:27:52;;;;;;;12.02;4.40;;;18.20;90.90;;;;;;5024049;28;20093;-61
2021/08/10 07:30:18;;;;;;;14.85;5.05;;;18.20;91.30;;;;;;5040110;28;20480;-61
2021/08/10 07:32:44;;;;;;;12.10;3.85;;;18.20;91.20;;;;;;5039998;28;20033;-61
2021/08/10 07:35:10;;;;;;;14.73;4.90;;;18.20;91.10;;;;;;5023191;28;20490;-60
2021/08/10 07:37:40;;;;;;;19.67;4.63;;;18.20;91.00;;;;;;5024030;28;20114;-61
2021/08/10 07:40:06;;;;;;;12.77;4.47;;;18.20;91.40;;;;;;4988583;28;20455;-60
2021/08/10 07:42:32;;;;;;;16.38;5.40;;;18.20;91.20;;;;;;5052731;28;20075;-61
2021/08/10 07:44:57;;;;;;;17.88;4.63;;;18.20;91.40;;;;;;5039858;28;20045;-61
2021/08/10 07:47:23;;;;;;;10.70;4.28;;;18.30;91.30;;;;;;5041350;28;20111;-61
2021/08/10 07:49:48;;;;;;;16.45;4.47;;;18.30;91.70;;;;;;5042307;28;20060;-60
2021/08/10 07:52:14;;;;;;;13.13;4.30;;;18.40;91.60;;;;;;5024631;28;20111;-61
2021/08/10 07:54:40;;;;;;;21.05;4.40;;;18.30;91.70;;;;;;5040268;28;20040;-61
2021/08/10 07:57:05;;;;;;;19.27;4.70;;;18.30;91.80;;;;;;5039333;28;20048;-61
2021/08/10 07:59:31;;;;;;;15.35;5.53;;;18.40;91.80;;;;;;5006426;28;20025;-61
2021/08/10 08:01:57;;;;;;;14.77;5.05;;;18.40;92.00;;;;;;5022905;28;20120;-61
2021/08/10 08:04:22;;;;;;;15.60;4.93;;;18.50;92.00;;;;;;5041016;28;20107;-61
2021/08/10 08:06:48;;;;;;;19.05;5.93;;;18.50;92.00;;;;;;5023122;28;20051;-61
2021/08/10 08:09:13;;;;;;;18.90;4.93;;;18.60;92.10;;;;;;5038336;28;20079;-61
2021/08/10 08:11:39;;;;;;;20.63;5.05;;;18.60;92.00;;;;;;5017948;28;20148;-61
2021/08/10 08:14:04;;;;;;;22.85;4.20;;;18.70;92.10;;;;;;5036490;28;20095;-60
2021/08/10 08:16:30;;;;;;;17.20;5.05;;;18.70;92.00;;;;;;5022828;28;20039;-61
2021/08/10 08:18:55;;;;;;;18.55;4.60;;;18.70;91.80;;;;;;5021894;28;20037;-60
2021/08/10 08:21:21;;;;;;;18.20;5.38;;;18.80;91.90;;;;;;5041021;28;20060;-60
2021/08/10 08:23:46;;;;;;;19.83;4.10;;;18.80;92.00;;;;;;5022562;28;20573;-61
2021/08/10 08:26:12;;;;;;;25.05;5.15;;;18.80;91.90;;;;;;5041945;28;20553;-61
2021/08/10 08:28:37;;;;;;;21.05;4.50;;;18.90;91.90;;;;;;5041525;28;20025;-61
2021/08/10 08:31:03;;;;;;;22.35;5.55;;;18.90;91.90;;;;;;5023656;28;20033;-60
2021/08/10 08:33:28;;;;;;;29.00;4.97;;;18.90;91.90;;;;;;5021773;28;20405;-61
2021/08/10 08:35:54;;;;;;;27.08;5.57;;;18.90;91.70;;;;;;5021164;28;20053;-61
2021/08/10 08:38:20;;;;;;;21.02;5.13;;;19.00;92.00;;;;;;5021969;28;20032;-61
2021/08/10 08:40:47;;;;;;;22.65;6.05;;;19.00;91.70;;;;;;5025162;28;20040;-61
2021/08/10 08:43:12;;;;;;;19.52;4.97;;;19.00;91.70;;;;;;5022230;28;20894;-61
2021/08/10 08:45:41;;;;;;;23.88;4.72;;;19.10;91.60;;;;;;5038195;28;20025;-61
2021/08/10 08:48:06;;;;;;;24.58;4.57;;;19.10;91.60;;;;;;5019714;28;20017;-61
2021/08/10 08:50:33;;;;;;;20.98;4.28;;;19.20;91.50;;;;;;5021769;28;20143;-61
2021/08/10 08:52:58;;;;;;;27.63;4.85;;;19.20;91.50;;;;;;5023299;28;20037;-61
2021/08/10 08:55:24;;;;;;;19.05;4.65;;;19.20;91.50;;;;;;5021065;28;20082;-62
2021/08/10 08:57:49;;;;;;;26.05;5.88;;;19.20;91.40;;;;;;5042086;28;20037;-61
2021/08/10 09:00:16;;;;;;;9.48;3.83;;;19.30;91.50;;;;;;5021969;28;20079;-61
2021/08/10 09:02:44;;;;;;;16.02;4.43;;;19.30;91.40;;;;;;5021637;28;20037;-61
2021/08/10 09:05:10;;;;;;;21.42;4.75;;;19.30;91.30;;;;;;5023162;28;20033;-61
2021/08/10 09:07:35;;;;;;;27.15;4.72;;;19.30;91.30;;;;;;5024172;28;20036;-60
2021/08/10 09:10:15;;;;;;;15.45;4.55;;;19.40;91.20;;;;;;5042133;28;20044;-61
2021/08/10 09:12:48;;;;;;;19.13;4.57;;;19.40;91.20;;;;;;5005291;28;20934;-63
2021/08/10 09:15:36;;;;;;;20.33;4.43;;;19.50;90.90;;;;;;5042268;28;20063;-60
2021/08/10 09:18:21;;;;;;;24.92;5.10;;;19.50;90.80;;;;;;5026745;28;21328;-61
2021/08/10 09:21:02;;;;;;;10.32;3.28;;;19.50;90.60;;;;;;5059538;28;20043;-61
2021/08/10 09:23:37;;;;;;;14.35;4.43;;;19.50;90.50;;;;;;5043649;28;20056;-61
2021/08/10 09:26:03;;;;;;;13.23;4.10;;;19.60;90.50;;;;;;5044276;28;20043;-60
2021/08/10 09:28:33;;;;;;;20.55;4.40;;;19.70;90.40;;;;;;5025753;28;20049;-61
2021/08/10 09:31:32;;;;;;;20.00;4.50;;;19.70;90.20;;;;;;5028355;28;20060;-61
2021/08/10 09:33:59;;;;;;;8.60;3.75;;;19.80;90.00;;;;;;5045080;28;20040;-61
2021/08/10 09:36:24;;;;;;;19.23;3.95;;;19.80;89.40;;;;;;5027038;28;20052;-61
2021/08/10 09:38:50;;;;;;;15.13;3.83;;;19.80;88.80;;;;;;5041649;28;20421;-61
2021/08/10 09:41:16;;;;;;;14.00;4.22;;;19.90;88.60;;;;;;5043559;28;20756;-60
2021/08/10 09:43:41;;;;;;;14.88;4.43;;;19.90;88.20;;;;;;5054612;28;20125;-61
2021/08/10 09:46:07;;;;;;;18.88;4.47;;;19.90;87.90;;;;;;5041209;28;20172;-61
2021/08/10 09:48:32;;;;;;;31.13;4.53;;;20.00;87.70;;;;;;5044326;28;20420;-61
2021/08/10 09:51:25;;;;;;;23.23;5.20;;;20.00;87.30;;;;;;5043174;28;20741;-61
2021/08/10 09:54:11;;;;;;;14.38;3.78;;;20.00;86.70;;;;;;5037720;28;20061;-61
2021/08/10 09:57:02;;;;;;;44.63;5.90;;;20.10;86.30;;;;;;5040870;28;20581;-61
2021/08/10 09:59:42;;;;;;;18.05;4.57;;;20.20;86.00;;;;;;5041377;28;20028;-60
2021/08/10 10:02:27;;;;;;;30.80;4.43;;;20.30;85.50;;;;;;5057912;28;20323;-61
2021/08/10 10:04:56;;;;;;;13.98;3.95;;;20.30;85.10;;;;;;5017199;28;20067;-61
2021/08/10 10:07:25;;;;;;;15.45;3.40;;;20.40;84.70;;;;;;5018902;28;20037;-62
2021/08/10 10:09:52;;;;;;;7.70;2.83;;;20.40;84.20;;;;;;5006924;28;20079;-61
2021/08/10 10:12:19;;;;;;;15.20;4.90;;;20.40;83.40;;;;;;5026587;28;20049;-61
2021/08/10 10:14:45;;;;;;;35.35;5.30;;;20.50;82.80;;;;;;5023264;28;20045;-61
2021/08/10 10:17:11;;;;;;;18.77;3.80;;;20.50;82.40;;;;;;5045811;28;20130;-61
2021/08/10 10:19:38;;;;;;;28.25;4.85;;;20.60;82.00;;;;;;5024961;28;20036;-61
2021/08/10 10:22:04;;;;;;;16.27;3.65;;;20.70;81.40;;;;;;5007474;28;20037;-61
2021/08/10 10:24:35;;;;;;;14.75;3.60;;;20.80;81.10;;;;;;5041061;28;20109;-61
2021/08/10 10:27:05;;;;;;;17.25;3.35;;;20.80;80.40;;;;;;5044234;28;20471;-61
2021/08/10 10:29:30;;;;;;;26.02;4.05;;;20.90;80.00;;;;;;5024930;28;20033;-61
2021/08/10 10:31:57;;;;;;;14.55;4.00;;;21.00;79.60;;;;;;5042838;28;20016;-61
2021/08/10 10:34:22;;;;;;;14.10;3.53;;;21.00;79.30;;;;;;5042811;28;20544;-61
2021/08/10 10:36:48;;;;;;;18.67;4.35;;;21.10;78.40;;;;;;5024223;28;20036;-61
2021/08/10 10:39:19;;;;;;;18.25;3.50;;;21.20;77.80;;;;;;5026798;28;20090;-61
2021/08/10 10:41:44;;;;;;;26.63;4.68;;;21.30;77.30;;;;;;5026658;28;20025;-61
2021/08/10 10:44:10;;;;;;;18.88;3.90;;;21.30;76.80;;;;;;5041423;28;20042;-61
2021/08/10 10:46:39;;;;;;;32.50;4.93;;;21.40;76.40;;;;;;5021924;28;20108;-62
2021/08/10 10:49:06;;;;;;;22.55;4.35;;;21.50;76.10;;;;;;5035779;28;20041;-61
2021/08/10 10:51:37;;;;;;;20.00;5.05;;;21.50;75.60;;;;;;5022669;28;20044;-60
2021/08/10 10:54:26;;;;;;;26.90;4.25;;;21.60;75.00;;;;;;5007888;28;20025;-61
2021/08/10 10:56:59;;;;;;;33.72;4.72;;;21.60;74.70;;;;;;5056910;28;20021;-61
2021/08/10 10:59:34;;;;;;;28.33;4.43;;;21.70;74.60;;;;;;5053933;28;20681;-61
2021/08/10 11:02:12;;;;;;;;;;;21.90;74.20;;;;;;5038330;28;20186;-61
2021/08/10 11:04:38;;;;;;;20.00;4.30;;;21.80;73.80;;;;;;5022142;28;19958;-61
2021/08/10 11:07:44;;;;;;;31.27;4.65;;;21.90;73.50;;;;;;5023432;28;20051;-61
2021/08/10 11:10:22;;;;;;;41.20;5.75;;;22.00;72.70;;;;;;5044031;28;20115;-61
2021/08/10 11:12:48;;;;;;;24.58;4.53;;;22.10;72.60;;;;;;5039722;28;20063;-60
2021/08/10 11:15:20;;;;;;;23.58;4.45;;;22.10;72.40;;;;;;5021320;28;20049;-61
2021/08/10 11:18:08;;;;;;;35.30;4.55;;;22.20;72.30;;;;;;5020747;28;20045;-61
2021/08/10 11:20:54;;;;;;;29.80;4.55;;;22.30;72.30;;;;;;5042431;28;20059;-61
2021/08/10 11:23:24;;;;;;;23.95;4.05;;;22.40;72.00;;;;;;5022817;28;20045;-61
2021/08/10 11:26:02;;;;;;;24.98;4.35;;;22.40;71.70;;;;;;5039631;28;20079;-61
2021/08/10 11:28:52;;;;;;;13.57;4.05;;;22.50;71.60;;;;;;5023272;28;20127;-61
2021/08/10 11:31:37;;;;;;;29.35;4.85;;;22.60;71.60;;;;;;5018679;28;20029;-61
2021/08/10 11:34:04;;;;;;;21.08;3.47;;;22.60;71.20;;;;;;5041164;28;20093;-61
2021/08/10 11:36:30;;;;;;;32.83;4.75;;;22.70;71.30;;;;;;5038889;28;20029;-61
2021/08/10 11:38:55;;;;;;;28.17;4.03;;;22.80;71.10;;;;;;5018866;28;20041;-61
2021/08/10 11:41:23;;;;;;;25.77;4.78;;;22.90;70.90;;;;;;5037743;28;20033;-61
2021/08/10 11:43:52;;;;;;;35.88;5.72;;;23.00;70.80;;;;;;5039118;28;20029;-61
2021/08/10 11:46:27;;;;;;;25.45;4.97;;;23.10;70.60;;;;;;5040070;28;20821;-61
2021/08/10 11:49:00;;;;;;;24.40;4.38;;;23.20;70.50;;;;;;5023168;28;20085;-61
2021/08/10 11:51:26;;;;;;;40.45;5.30;;;23.20;70.50;;;;;;5040509;28;20476;-62
2021/08/10 11:53:53;;;;;;;35.17;5.60;;;23.30;70.30;;;;;;5021823;28;20103;-61
2021/08/10 11:56:34;;;;;;;26.27;5.07;;;23.40;70.50;;;;;;5004752;28;20029;-61
2021/08/10 11:59:00;;;;;;;28.10;5.78;;;23.50;70.30;;;;;;5056262;28;20024;-61
2021/08/10 12:01:29;;;;;;;25.08;5.45;;;23.50;70.10;;;;;;5023200;28;20033;-62
2021/08/10 12:04:07;;;;;;;36.83;5.68;;;23.60;70.00;;;;;;5021124;28;20047;-61
2021/08/10 12:06:33;;;;;;;35.60;5.30;;;23.70;69.80;;;;;;5036129;28;20068;-61
2021/08/10 12:09:25;;;;;;;48.10;6.25;;;23.80;69.80;;;;;;5018911;28;20182;-61
2021/08/10 12:11:56;;;;;;;41.17;5.50;;;23.90;70.00;;;;;;5034533;28;20068;-63
2021/08/10 12:14:23;;;;;;;29.15;5.45;;;24.00;69.80;;;;;;5034420;28;20293;-61
2021/08/10 12:16:56;;;;;;;31.60;4.90;;;24.10;69.60;;;;;;5020888;28;20036;-61
2021/08/10 12:19:38;;;;;;;38.15;4.95;;;24.10;69.50;;;;;;5040456;28;20047;-61
2021/08/10 12:22:08;;;;;;;32.67;5.50;;;24.20;69.40;;;;;;5041453;28;21085;-61
2021/08/10 12:24:38;;;;;;;32.25;5.65;;;24.30;69.50;;;;;;5021089;28;20045;-61
2021/08/10 12:27:04;;;;;;;38.75;6.18;;;24.40;69.30;;;;;;5005404;28;20060;-61
2021/08/10 12:29:43;;;;;;;42.15;5.85;;;24.40;69.30;;;;;;5019990;28;20075;-61
2021/08/10 12:32:14;;;;;;;34.75;5.57;;;24.50;69.10;;;;;;5037354;28;20144;-61
2021/08/10 12:34:41;;;;;;;44.42;6.93;;;24.60;69.20;;;;;;5021234;28;20036;-61
2021/08/10 12:37:07;;;;;;;33.88;5.13;;;24.60;69.10;;;;;;5040306;28;20029;-61
2021/08/10 12:39:50;;;;;;;40.22;4.85;;;24.60;68.70;;;;;;5006045;28;20036;-61
2021/08/10 12:42:16;;;;;;;28.13;4.70;;;24.80;68.50;;;;;;5038592;28;20098;-61
2021/08/10 12:44:41;;;;;;;33.67;4.90;;;24.80;68.50;;;;;;5022790;28;20086;-61
2021/08/10 12:47:08;;;;;;;44.22;5.32;;;24.90;68.20;;;;;;5021996;28;20045;-61